createdAt,value
2018-01-02T00:04:36.005Z,983.16
2018-01-02T00:15:03.877Z,983.18
2018-01-02T00:25:32.172Z,983.36
2018-01-02T00:35:59.992Z,983.97
2018-01-02T00:46:27.827Z,984.31
2018-01-02T00:56:56.666Z,984.48
2018-01-02T01:07:23.362Z,984.66
2018-01-02T01:17:51.104Z,985.08
2018-01-02T01:28:18.869Z,985.24
2018-01-02T01:38:46.127Z,985.33
2018-01-02T01:49:13.870Z,985.79
2018-01-02T01:59:42.152Z,985.52
2018-01-02T02:10:09.820Z,986.15
2018-01-02T02:20:37.535Z,986.10
2018-01-02T02:31:05.254Z,986.40
2018-01-02T02:41:32.949Z,986.60
2018-01-02T02:52:00.135Z,986.43
2018-01-02T03:02:28.300Z,986.73
2018-01-02T03:12:56.003Z,986.55
2018-01-02T03:23:23.690Z,986.85
2018-01-02T03:33:51.399Z,986.87
2018-01-02T03:44:18.565Z,987.11
2018-01-02T03:54:46.792Z,987.11
2018-01-02T04:05:13.988Z,987.81
2018-01-02T04:15:41.700Z,987.66
2018-01-02T04:26:09.906Z,987.01
2018-01-02T04:36:37.616Z,987.55
2018-01-02T04:47:05.342Z,987.85
2018-01-02T04:57:33.061Z,988.10
2018-01-02T05:08:00.341Z,988.01
2018-01-02T05:18:28.493Z,988.24
2018-01-02T05:28:56.726Z,988.07
2018-01-02T05:39:23.474Z,988.47
2018-01-02T05:49:51.672Z,988.47
2018-01-02T06:00:19.403Z,988.71
2018-01-02T06:10:47.106Z,988.28
2018-01-02T06:21:14.774Z,988.98
2018-01-02T06:31:42.479Z,988.72
2018-01-02T06:42:10.171Z,989.37
2018-01-02T06:52:37.862Z,989.57
2018-01-02T07:03:05.522Z,988.97
2018-01-02T07:13:32.702Z,989.20
2018-01-02T07:24:00.917Z,989.46
2018-01-02T07:34:28.655Z,990.12
2018-01-02T07:44:56.422Z,990.27
2018-01-02T07:55:24.223Z,991.04
2018-01-02T08:05:51.556Z,991.25
2018-01-02T08:16:19.387Z,991.12
2018-01-02T08:26:47.726Z,991.96
2018-01-02T08:37:15.712Z,991.87
2018-01-02T08:47:42.919Z,992.39
2018-01-02T08:58:10.766Z,991.92
2018-01-02T09:08:38.702Z,991.73
2018-01-02T09:19:06.756Z,992.74
2018-01-02T09:29:35.336Z,992.95
2018-01-02T09:40:03.486Z,992.87
2018-01-02T09:50:31.490Z,993.50
2018-01-02T10:00:59.507Z,993.32
2018-01-02T10:11:27.491Z,993.22
2018-01-02T10:21:55.870Z,993.81
2018-01-02T10:32:23.568Z,993.82
2018-01-02T10:42:51.556Z,992.39
2018-01-02T10:53:19.756Z,993.56
2018-01-02T11:03:47.813Z,994.23
2018-01-02T11:14:15.905Z,994.86
2018-01-02T11:24:43.942Z,994.43
2018-01-02T11:35:11.992Z,993.64
2018-01-02T11:45:40.054Z,992.46
2018-01-02T11:56:08.272Z,993.16
2018-01-02T12:06:36.575Z,995.02
2018-01-02T12:17:04.895Z,993.44
2018-01-02T12:27:33.248Z,993.95
2018-01-02T12:38:01.669Z,993.66
2018-01-02T12:48:29.621Z,994.41
2018-01-02T12:58:57.979Z,995.13
2018-01-02T13:09:26.276Z,993.61
2018-01-02T13:19:54.552Z,994.56
2018-01-02T13:30:22.739Z,994.00
2018-01-02T13:40:50.974Z,993.84
2018-01-02T13:51:19.305Z,993.76
2018-01-02T14:01:47.641Z,994.56
2018-01-02T14:12:15.908Z,994.40
2018-01-02T14:22:44.207Z,994.38
2018-01-02T14:33:12.540Z,994.66
2018-01-02T14:43:41.078Z,994.67
2018-01-02T14:54:10.171Z,994.76
2018-01-02T15:04:37.406Z,994.44
2018-01-02T15:15:05.790Z,994.51
2018-01-02T15:25:33.335Z,994.89
2018-01-02T15:36:01.360Z,994.13
2018-01-02T15:46:29.324Z,994.62
2018-01-02T15:56:57.235Z,993.77
2018-01-02T16:07:25.092Z,995.11
2018-01-02T16:17:53.060Z,995.44
2018-01-02T16:28:20.548Z,994.00
2018-01-02T16:38:48.664Z,994.10
2018-01-02T16:49:16.237Z,994.03
2018-01-02T16:59:43.356Z,993.89
2018-01-02T17:10:10.890Z,994.23
2018-01-02T17:20:38.424Z,994.29
2018-01-02T17:31:05.925Z,993.46
2018-01-02T17:41:33.459Z,993.16
2018-01-02T17:52:01.051Z,993.57
2018-01-02T18:02:28.660Z,993.16
2018-01-02T18:12:56.256Z,992.27
2018-01-02T18:23:24.397Z,992.13
2018-01-02T18:33:51.621Z,992.50
2018-01-02T18:44:19.381Z,992.64
2018-01-02T18:54:47.632Z,992.53
2018-01-02T19:05:14.936Z,992.73
2018-01-02T19:15:42.709Z,992.30
2018-01-02T19:26:10.505Z,992.20
2018-01-02T19:36:38.320Z,991.94
2018-01-02T19:47:06.139Z,991.75
2018-01-02T19:57:33.986Z,991.69
2018-01-02T20:08:01.820Z,991.98
2018-01-02T20:18:29.573Z,991.50
2018-01-02T20:28:57.846Z,991.30
2018-01-02T20:39:25.592Z,991.33
2018-01-02T20:49:53.348Z,991.15
2018-01-02T21:00:21.136Z,990.84
2018-01-02T21:10:48.402Z,990.34
2018-01-02T21:21:16.195Z,990.28
2018-01-02T21:31:43.946Z,990.00
2018-01-02T21:42:12.214Z,989.82
2018-01-02T21:52:39.479Z,989.51
2018-01-02T22:03:07.227Z,988.96
2018-01-02T22:13:34.999Z,988.82
2018-01-02T22:24:02.744Z,988.52
2018-01-02T22:34:30.503Z,988.29
2018-01-02T22:44:58.281Z,988.16
2018-01-02T22:55:26.028Z,987.88
2018-01-02T23:05:53.847Z,987.52
2018-01-02T23:16:22.076Z,987.13
2018-01-02T23:26:49.368Z,986.85
2018-01-02T23:37:17.164Z,986.53
2018-01-02T23:47:44.983Z,986.19
2018-01-02T23:58:12.758Z,985.92
